Time;durP1;ratioP1;P1;durP2;ratioP2;P2;SDS_P1;SDS_P2;PMS_P1;PMS_P2;Temp;Humidity;BMP_temperature;BMP_pressure;BME280_temperature;BME280_humidity;BME280_pressure;Samples;Min_cycle;Max_cycle;Signal;HPM_P1;HPM_P2
2023/09/07 00:01:54;;;;;;;6.13;5.50;;;18.50;1.00;;;;;;5052085;28;20398;-81
2023/09/07 00:04:22;;;;;;;6.77;6.17;;;18.50;1.00;;;;;;5047987;28;20422;-81
2023/09/07 00:06:49;;;;;;;6.55;5.95;;;18.50;1.00;;;;;;5034075;28;20383;-82
2023/09/07 00:09:16;;;;;;;7.50;6.17;;;18.40;1.00;;;;;;5033311;28;20903;-82
2023/09/07 00:11:41;;;;;;;6.10;5.60;;;18.30;1.00;;;;;;5035149;28;20398;-81
2023/09/07 00:14:07;;;;;;;6.45;5.88;;;18.30;1.00;;;;;;5033057;28;20930;-81
2023/09/07 00:16:38;;;;;;;6.10;5.50;;;18.30;1.00;;;;;;5015659;28;20428;-82
2023/09/07 00:19:04;;;;;;;6.75;6.05;;;18.20;1.00;;;;;;5013353;28;20479;-81
2023/09/07 00:21:29;;;;;;;6.32;5.82;;;18.20;1.00;;;;;;5014402;28;20460;-81
2023/09/07 00:23:55;;;;;;;6.30;5.70;;;18.20;1.00;;;;;;5013636;28;20908;-82
2023/09/07 00:26:20;;;;;;;8.33;6.20;;;18.20;1.00;;;;;;5013250;28;20424;-81
2023/09/07 00:28:46;;;;;;;6.30;5.70;;;18.20;1.00;;;;;;5015564;28;20468;-81
2023/09/07 00:31:12;;;;;;;6.95;5.90;;;18.10;1.00;;;;;;5014614;28;20857;-82
2023/09/07 00:33:37;;;;;;;6.17;5.67;;;18.20;1.00;;;;;;5014624;28;20718;-81
2023/09/07 00:36:03;;;;;;;6.50;5.97;;;18.10;1.00;;;;;;5014185;28;20900;-81
2023/09/07 00:38:29;;;;;;;5.85;5.35;;;18.10;1.00;;;;;;5014266;28;20392;-81
2023/09/07 00:40:55;;;;;;;6.47;5.90;;;18.00;1.00;;;;;;5017930;28;20397;-81
2023/09/07 00:43:20;;;;;;;6.40;5.80;;;17.90;1.00;;;;;;5025343;28;20395;-82
2023/09/07 00:45:46;;;;;;;6.70;6.10;;;17.80;1.00;;;;;;5033026;28;20410;-81
2023/09/07 00:48:13;;;;;;;12.00;5.95;;;17.70;1.00;;;;;;5033512;28;20399;-81
2023/09/07 00:50:39;;;;;;;6.90;6.27;;;17.80;1.00;;;;;;5028671;28;20411;-81
2023/09/07 00:53:06;;;;;;;6.00;5.40;;;17.90;1.00;;;;;;5026861;28;20439;-81
2023/09/07 00:55:34;;;;;;;6.15;5.55;;;17.80;1.00;;;;;;5033045;28;20764;-81
2023/09/07 00:58:00;;;;;;;6.90;5.70;;;17.80;1.00;;;;;;5031841;28;20771;-81
2023/09/07 01:00:27;;;;;;;6.50;5.90;;;17.70;1.00;;;;;;5024721;28;20397;-81
2023/09/07 01:02:52;;;;;;;6.80;5.60;;;17.70;1.00;;;;;;5036395;28;20427;-80
2023/09/07 01:05:21;;;;;;;6.50;5.60;;;17.70;1.00;;;;;;5036596;28;20388;-79
2023/09/07 01:07:54;;;;;;;6.82;5.10;;;17.70;1.00;;;;;;5031759;28;20401;-81
2023/09/07 01:10:21;;;;;;;5.78;5.03;;;17.70;1.00;;;;;;5014270;28;20421;-81
2023/09/07 01:12:47;;;;;;;6.35;5.75;;;17.60;1.00;;;;;;5019784;28;20410;-80
2023/09/07 01:15:12;;;;;;;6.80;6.10;;;17.70;1.00;;;;;;5030887;28;20469;-81
2023/09/07 01:17:39;;;;;;;6.50;5.90;;;17.70;1.00;;;;;;5030403;28;20398;-81
2023/09/07 01:20:07;;;;;;;6.78;6.07;;;17.60;1.00;;;;;;5030030;28;20395;-81
2023/09/07 01:22:33;;;;;;;6.30;5.80;;;17.50;1.00;;;;;;5032058;28;20390;-80
2023/09/07 01:25:00;;;;;;;5.53;5.13;;;17.50;1.00;;;;;;5030937;28;20387;-81
2023/09/07 01:27:25;;;;;;;6.10;5.60;;;17.40;1.00;;;;;;5032307;28;20383;-80
2023/09/07 01:29:52;;;;;;;6.07;5.47;;;17.30;1.00;;;;;;5030095;28;20409;-80
2023/09/07 01:32:17;;;;;;;6.50;5.90;;;17.30;1.00;;;;;;5029696;28;20395;-81
2023/09/07 01:34:43;;;;;;;5.90;5.40;;;17.30;1.00;;;;;;5029735;28;20464;-80
2023/09/07 01:37:09;;;;;;;6.10;5.60;;;17.20;1.00;;;;;;5031483;28;20422;-81
2023/09/07 01:39:34;;;;;;;6.30;5.63;;;17.20;1.00;;;;;;5030386;28;20392;-81
2023/09/07 01:42:00;;;;;;;6.30;5.80;;;17.10;1.00;;;;;;5031125;28;21027;-81
2023/09/07 01:44:26;;;;;;;6.27;5.77;;;17.20;1.00;;;;;;5009674;28;20404;-80
2023/09/07 01:46:52;;;;;;;6.45;5.95;;;17.10;1.00;;;;;;5011154;28;20392;-82
2023/09/07 01:49:18;;;;;;;6.10;5.45;;;17.10;1.00;;;;;;5011072;28;20397;-82
2023/09/07 01:51:43;;;;;;;6.47;5.80;;;17.10;1.00;;;;;;5016965;28;20406;-82
2023/09/07 01:54:09;;;;;;;6.30;5.70;;;17.00;1.00;;;;;;5028536;28;20509;-82
2023/09/07 01:56:35;;;;;;;5.72;5.13;;;16.90;1.00;;;;;;5024086;28;20395;-82
2023/09/07 01:59:01;;;;;;;5.80;5.30;;;16.90;1.00;;;;;;5030944;28;20474;-82
2023/09/07 02:01:36;;;;;;;6.30;5.70;;;16.90;1.00;;;;;;5034973;28;20394;-81
2023/09/07 02:04:02;;;;;;;5.60;5.10;;;16.80;1.00;;;;;;5046208;28;20417;-81
2023/09/07 02:06:28;;;;;;;6.00;5.50;;;16.80;1.00;;;;;;5045775;28;20387;-81
2023/09/07 02:08:53;;;;;;;5.60;5.10;;;16.70;1.00;;;;;;5038865;28;20510;-82
2023/09/07 02:11:19;;;;;;;5.90;5.50;;;16.80;1.00;;;;;;5024640;28;20393;-82
2023/09/07 02:13:47;;;;;;;6.50;5.70;;;16.80;1.00;;;;;;5014587;28;20945;-82
2023/09/07 02:16:13;;;;;;;6.40;5.80;;;16.60;1.00;;;;;;5012988;28;20384;-82
2023/09/07 02:18:43;;;;;;;7.15;6.10;;;16.70;1.00;;;;;;5011500;28;20400;-81
2023/09/07 02:21:09;;;;;;;6.43;5.82;;;16.70;1.00;;;;;;5017708;28;20409;-82
2023/09/07 02:23:37;;;;;;;5.50;5.10;;;16.80;1.00;;;;;;5033188;28;20459;-82
2023/09/07 02:26:03;;;;;;;6.00;5.50;;;16.70;1.00;;;;;;5031099;28;20818;-82
2023/09/07 02:28:28;;;;;;;5.70;5.20;;;16.70;1.00;;;;;;5031321;28;20406;-82
2023/09/07 02:30:54;;;;;;;6.00;5.40;;;16.70;1.00;;;;;;5017222;28;20864;-82
2023/09/07 02:33:20;;;;;;;5.28;4.78;;;16.60;1.00;;;;;;5014756;28;20777;-82
2023/09/07 02:35:48;;;;;;;9.23;5.50;;;16.70;1.00;;;;;;5016234;28;20397;-82
2023/09/07 02:38:14;;;;;;;6.05;5.55;;;16.60;1.00;;;;;;5016168;28;20377;-82
2023/09/07 02:40:42;;;;;;;5.50;5.00;;;16.70;1.00;;;;;;5028266;28;20409;-82
2023/09/07 02:43:07;;;;;;;6.20;5.70;;;17.20;1.00;;;;;;5030079;28;20406;-81
2023/09/07 02:45:33;;;;;;;5.57;5.10;;;16.50;1.00;;;;;;5035432;28;20521;-81
2023/09/07 02:47:58;;;;;;;5.53;5.03;;;16.50;1.00;;;;;;5033792;28;20395;-81
2023/09/07 02:50:24;;;;;;;6.20;5.60;;;16.50;1.00;;;;;;5044595;28;20391;-80
2023/09/07 02:52:49;;;;;;;6.40;5.80;;;16.50;1.00;;;;;;5046228;28;20488;-81
2023/09/07 02:55:15;;;;;;;5.63;5.13;;;16.50;1.00;;;;;;5047038;28;20886;-81
2023/09/07 02:57:40;;;;;;;6.33;5.83;;;16.50;1.00;;;;;;5048695;28;20379;-81
2023/09/07 03:00:10;;;;;;;6.30;5.00;;;16.50;1.00;;;;;;5026428;28;20403;-81
2023/09/07 03:02:36;;;;;;;5.70;5.20;;;16.50;1.00;;;;;;5026605;28;20397;-81
2023/09/07 03:05:03;;;;;;;5.85;5.28;;;16.50;1.00;;;;;;5038123;28;20427;-81
2023/09/07 03:07:34;;;;;;;6.20;5.60;;;16.40;1.00;;;;;;5036794;28;20400;-82
2023/09/07 03:09:59;;;;;;;5.30;4.90;;;16.40;1.00;;;;;;5028537;28;20410;-81
2023/09/07 03:12:26;;;;;;;5.35;4.85;;;16.30;1.00;;;;;;5032419;28;20388;-82
2023/09/07 03:14:51;;;;;;;5.90;5.30;;;16.30;1.00;;;;;;5030957;28;20413;-81
2023/09/07 03:17:17;;;;;;;5.80;4.97;;;16.20;1.00;;;;;;5016215;28;20472;-82
2023/09/07 03:19:43;;;;;;;5.78;5.28;;;16.30;1.00;;;;;;5014285;28;20451;-82
2023/09/07 03:22:09;;;;;;;6.20;5.70;;;16.30;1.00;;;;;;5015431;28;20407;-82
2023/09/07 03:24:34;;;;;;;6.22;5.60;;;16.20;1.00;;;;;;5015248;28;20385;-82
2023/09/07 03:27:00;;;;;;;6.00;5.50;;;16.20;1.00;;;;;;5040475;28;20740;-82
2023/09/07 03:29:25;;;;;;;5.80;5.20;;;16.20;1.00;;;;;;5043565;28;20412;-82
2023/09/07 03:31:51;;;;;;;6.38;5.75;;;16.20;1.00;;;;;;5042605;28;20379;-81
2023/09/07 03:34:16;;;;;;;5.63;5.20;;;16.20;1.00;;;;;;5036211;28;20411;-81
2023/09/07 03:36:42;;;;;;;5.93;5.43;;;16.10;1.00;;;;;;5035125;28;20402;-81
2023/09/07 03:39:07;;;;;;;5.80;5.20;;;16.20;1.00;;;;;;5030756;28;20408;-81
2023/09/07 03:41:34;;;;;;;5.57;5.07;;;16.20;1.00;;;;;;5014815;28;20400;-81
2023/09/07 03:44:00;;;;;;;5.85;5.20;;;16.20;1.00;;;;;;5032246;28;20399;-81
2023/09/07 03:46:26;;;;;;;6.15;5.65;;;16.20;1.00;;;;;;5033357;28;20445;-81
2023/09/07 03:48:52;;;;;;;5.57;5.18;;;16.20;1.00;;;;;;5035211;28;20426;-81
2023/09/07 03:51:17;;;;;;;5.70;5.20;;;16.10;1.00;;;;;;5033271;28;20402;-80
2023/09/07 03:53:43;;;;;;;6.10;5.50;;;16.10;1.00;;;;;;5035964;28;20457;-81
2023/09/07 03:56:08;;;;;;;6.03;5.53;;;16.10;1.00;;;;;;5036129;28;20395;-82
2023/09/07 03:58:34;;;;;;;6.07;5.57;;;16.10;1.00;;;;;;5036728;28;20883;-82
2023/09/07 04:01:00;;;;;;;5.70;5.20;;;16.00;1.00;;;;;;5021851;28;20388;-81
2023/09/07 04:03:25;;;;;;;5.97;5.38;;;16.00;1.00;;;;;;5017559;28;20403;-82
2023/09/07 04:05:52;;;;;;;6.28;5.68;;;16.00;1.00;;;;;;5019228;28;20395;-82
2023/09/07 04:08:18;;;;;;;6.30;5.70;;;16.00;1.00;;;;;;5023648;28;20393;-82
2023/09/07 04:10:44;;;;;;;6.38;5.88;;;16.10;1.00;;;;;;5034005;28;20426;-82
2023/09/07 04:13:09;;;;;;;6.13;5.63;;;16.50;1.00;;;;;;5035857;28;20415;-82
2023/09/07 04:15:42;;;;;;;6.13;5.03;;;16.30;1.00;;;;;;5024838;28;20866;-82
2023/09/07 04:18:08;;;;;;;5.43;4.97;;;16.20;1.00;;;;;;5015377;28;20388;-82
2023/09/07 04:20:34;;;;;;;6.00;5.30;;;16.20;1.00;;;;;;5015097;28;20389;-81
2023/09/07 04:22:59;;;;;;;5.50;5.00;;;16.20;1.00;;;;;;5014542;28;20377;-82
2023/09/07 04:25:25;;;;;;;5.50;5.00;;;16.20;1.00;;;;;;5014178;28;20396;-82
2023/09/07 04:27:51;;;;;;;5.70;5.20;;;16.20;1.00;;;;;;5015391;28;20400;-82
2023/09/07 04:30:17;;;;;;;7.23;5.30;;;16.10;1.00;;;;;;5027643;28;20958;-81
2023/09/07 04:32:43;;;;;;;5.93;5.40;;;16.20;1.00;;;;;;5036521;28;20422;-82
2023/09/07 04:35:08;;;;;;;6.80;5.50;;;16.10;1.00;;;;;;5062900;22;20434;-84
2023/09/07 04:37:34;;;;;;;5.97;5.28;;;16.20;1.00;;;;;;5056127;28;20419;-85
2023/09/07 04:39:59;;;;;;;6.00;5.40;;;16.10;1.00;;;;;;5073899;28;20794;-85
2023/09/07 04:42:25;;;;;;;5.50;5.10;;;16.10;1.00;;;;;;5055859;28;20776;-85
2023/09/07 04:44:50;;;;;;;5.63;5.13;;;16.00;1.00;;;;;;5056910;28;20406;-85
2023/09/07 04:47:16;;;;;;;5.30;4.90;;;16.00;1.00;;;;;;5082018;28;20733;-85
2023/09/07 04:49:42;;;;;;;6.00;5.40;;;16.00;1.00;;;;;;5074081;28;20375;-85
2023/09/07 04:52:09;;;;;;;7.80;5.20;;;16.00;1.00;;;;;;5058839;28;20378;-84
2023/09/07 04:54:34;;;;;;;5.95;5.10;;;16.00;1.00;;;;;;5054238;28;20915;-85
2023/09/07 04:57:00;;;;;;;5.70;5.20;;;16.00;1.00;;;;;;5080714;28;20388;-84
2023/09/07 04:59:25;;;;;;;6.70;5.40;;;16.10;1.00;;;;;;5083451;28;20981;-85
2023/09/07 05:01:51;;;;;;;6.03;5.47;;;16.10;1.00;;;;;;5075153;28;20392;-85
2023/09/07 05:04:16;;;;;;;6.30;5.70;;;16.00;1.00;;;;;;5058405;28;20399;-85
2023/09/07 05:06:43;;;;;;;5.78;5.28;;;16.00;1.00;;;;;;5076187;28;20425;-85
2023/09/07 05:09:08;;;;;;;5.47;4.97;;;16.10;1.00;;;;;;5095488;28;20412;-85
2023/09/07 05:11:35;;;;;;;5.93;5.43;;;15.90;1.00;;;;;;5094716;28;20426;-85
2023/09/07 05:14:01;;;;;;;7.60;5.50;;;16.00;1.00;;;;;;5077869;28;20394;-85
2023/09/07 05:16:27;;;;;;;5.80;5.20;;;16.00;1.00;;;;;;5082009;28;20453;-85
2023/09/07 05:18:53;;;;;;;5.78;5.18;;;16.10;1.00;;;;;;5081500;28;20412;-85
2023/09/07 05:21:18;;;;;;;5.88;5.38;;;16.10;1.00;;;;;;5068433;28;20396;-85
2023/09/07 05:23:46;;;;;;;6.07;5.57;;;16.00;1.00;;;;;;5092389;28;20393;-85
2023/09/07 05:26:12;;;;;;;6.10;5.50;;;16.10;1.00;;;;;;5094670;28;20385;-85
2023/09/07 05:28:41;;;;;;;6.10;5.50;;;16.20;1.00;;;;;;5098792;28;20394;-85
2023/09/07 05:31:07;;;;;;;5.65;5.15;;;16.20;1.00;;;;;;5104329;28;20386;-85
2023/09/07 05:33:33;;;;;;;6.32;5.40;;;16.20;1.00;;;;;;5087846;28;20498;-85
2023/09/07 05:35:58;;;;;;;6.13;5.53;;;16.30;1.00;;;;;;5076240;28;20509;-85
2023/09/07 05:38:24;;;;;;;6.20;5.00;;;16.30;1.00;;;;;;5081513;28;20375;-84
2023/09/07 05:40:53;;;;;;;5.90;5.40;;;16.30;1.00;;;;;;5085056;28;20380;-84
2023/09/07 05:43:19;;;;;;;5.93;5.10;;;16.30;1.00;;;;;;5095403;28;20411;-85
2023/09/07 05:45:49;;;;;;;5.38;4.88;;;16.30;1.00;;;;;;5099792;28;20390;-84
2023/09/07 05:48:18;;;;;;;5.82;5.22;;;16.40;1.00;;;;;;5099016;28;20431;-84
2023/09/07 05:50:44;;;;;;;5.53;5.03;;;16.30;1.00;;;;;;5083593;28;20381;-84
2023/09/07 05:53:09;;;;;;;6.05;5.45;;;16.00;1.00;;;;;;5082080;28;20417;-85
2023/09/07 05:55:35;;;;;;;5.07;4.67;;;16.30;1.00;;;;;;5080218;28;20405;-86
2023/09/07 05:58:04;;;;;;;5.85;5.00;;;16.40;1.00;;;;;;5076762;28;20935;-85
2023/09/07 06:00:30;;;;;;;6.15;5.65;;;16.50;1.00;;;;;;5090789;28;20449;-85
2023/09/07 06:02:55;;;;;;;5.65;5.15;;;16.60;1.00;;;;;;5085565;28;20401;-85
2023/09/07 06:05:21;;;;;;;8.00;5.60;;;16.60;1.00;;;;;;5101702;28;20381;-85
2023/09/07 06:07:47;;;;;;;5.50;5.00;;;16.60;1.00;;;;;;5102156;28;20447;-85
2023/09/07 06:10:12;;;;;;;6.50;5.82;;;16.60;1.00;;;;;;5096236;28;20473;-84
2023/09/07 06:12:38;;;;;;;5.95;5.35;;;16.60;1.00;;;;;;5077098;28;20410;-83
2023/09/07 06:15:04;;;;;;;6.30;5.80;;;16.70;1.00;;;;;;5080943;28;20473;-83
2023/09/07 06:17:29;;;;;;;6.50;5.82;;;16.70;1.00;;;;;;5079384;28;20412;-84
2023/09/07 06:19:55;;;;;;;5.80;5.30;;;16.70;1.00;;;;;;5079679;28;20878;-85
2023/09/07 06:22:21;;;;;;;6.00;5.40;;;16.70;1.00;;;;;;5086269;28;20456;-84
2023/09/07 06:24:47;;;;;;;6.10;5.60;;;16.80;1.00;;;;;;5059269;28;20380;-85
2023/09/07 06:27:12;;;;;;;6.53;5.93;;;16.80;1.00;;;;;;5077365;28;20387;-84
2023/09/07 06:29:38;;;;;;;6.83;5.70;;;16.90;1.00;;;;;;5076985;28;20755;-84
2023/09/07 06:32:04;;;;;;;7.88;5.63;;;17.10;1.00;;;;;;5060268;28;20500;-85
2023/09/07 06:34:29;;;;;;;7.10;5.40;;;16.90;1.00;;;;;;5076348;28;20397;-84
2023/09/07 06:36:55;;;;;;;6.30;5.70;;;17.00;1.00;;;;;;5088548;28;20405;-84
2023/09/07 06:39:20;;;;;;;7.30;5.40;;;17.10;1.00;;;;;;5109217;28;20382;-84
2023/09/07 06:41:46;;;;;;;5.67;5.17;;;17.10;1.00;;;;;;5103458;28;20389;-85
2023/09/07 06:44:12;;;;;;;5.78;5.20;;;17.20;1.00;;;;;;5067258;28;20840;-84
2023/09/07 06:46:37;;;;;;;6.17;5.57;;;17.30;1.00;;;;;;5087919;28;20461;-84
2023/09/07 06:49:03;;;;;;;5.65;5.15;;;17.40;1.00;;;;;;5102062;28;20464;-84
2023/09/07 06:51:30;;;;;;;5.90;5.30;;;17.50;1.00;;;;;;5107398;28;20378;-84
2023/09/07 06:53:56;;;;;;;6.15;5.60;;;17.70;1.00;;;;;;5081396;28;20820;-84
2023/09/07 06:56:22;;;;;;;6.97;5.53;;;17.70;1.00;;;;;;5097815;28;20400;-84
2023/09/07 06:58:48;;;;;;;6.00;5.43;;;17.80;1.00;;;;;;5067184;28;20762;-85
2023/09/07 07:01:13;;;;;;;5.80;5.20;;;17.80;1.00;;;;;;5076646;28;20396;-84
2023/09/07 07:03:39;;;;;;;5.70;5.20;;;17.80;1.00;;;;;;5085047;28;20384;-84
2023/09/07 07:06:04;;;;;;;7.43;5.40;;;17.90;1.00;;;;;;5090498;28;20374;-84
2023/09/07 07:08:30;;;;;;;7.20;5.40;;;18.00;1.00;;;;;;5105311;28;20386;-85
2023/09/07 07:10:55;;;;;;;5.90;5.30;;;18.10;1.00;;;;;;5084698;28;20421;-84
2023/09/07 07:13:21;;;;;;;6.97;5.60;;;18.10;1.00;;;;;;5092918;28;20396;-83
2023/09/07 07:15:46;;;;;;;5.97;5.47;;;18.30;1.00;;;;;;5101831;28;20384;-82
2023/09/07 07:18:12;;;;;;;5.63;5.03;;;18.40;1.00;;;;;;5104286;28;20382;-85
2023/09/07 07:20:39;;;;;;;5.30;4.90;;;18.50;1.00;;;;;;5097059;28;20758;-84
2023/09/07 07:23:06;;;;;;;5.68;4.82;;;18.50;1.00;;;;;;5112176;28;20381;-83
2023/09/07 07:25:33;;;;;;;6.50;4.80;;;18.70;1.00;;;;;;5137701;28;20388;-82
2023/09/07 07:28:05;;;;;;;5.35;4.95;;;18.80;1.00;;;;;;5134113;27;20492;-84
2023/09/07 07:30:42;;;;;;;4.83;4.43;;;18.90;1.00;;;;;;5080561;28;20403;-87
2023/09/07 07:33:08;;;;;;;6.43;4.85;;;19.10;1.00;;;;;;5081853;28;20404;-87
2023/09/07 07:35:34;;;;;;;5.90;5.40;;;19.20;1.00;;;;;;5089861;28;20409;-87
2023/09/07 07:38:01;;;;;;;6.30;5.70;;;19.40;1.00;;;;;;5081379;28;20387;-86
2023/09/07 07:40:26;;;;;;;5.40;4.90;;;19.50;1.00;;;;;;5091741;28;20383;-87
2023/09/07 07:42:53;;;;;;;6.20;5.50;;;19.50;1.00;;;;;;5067091;28;20386;-87
2023/09/07 07:45:19;;;;;;;5.28;4.88;;;21.80;1.00;;;;;;5094206;28;20379;-87
2023/09/07 07:47:45;;;;;;;5.65;5.25;;;20.40;1.00;;;;;;5101356;28;20382;-87
2023/09/07 07:50:11;;;;;;;5.75;5.25;;;19.80;1.00;;;;;;5094460;28;20379;-87
2023/09/07 07:52:37;;;;;;;5.43;4.93;;;19.90;1.00;;;;;;5095704;28;20389;-87
2023/09/07 07:55:02;;;;;;;7.60;5.45;;;20.20;1.00;;;;;;5088210;28;20773;-87
2023/09/07 07:57:28;;;;;;;6.10;5.20;;;20.30;1.00;;;;;;5061518;28;20438;-87
2023/09/07 07:59:56;;;;;;;5.18;4.78;;;20.40;1.00;;;;;;5056450;28;20490;-87
2023/09/07 08:02:22;;;;;;;4.93;4.53;;;20.70;1.00;;;;;;5061044;28;20403;-87
2023/09/07 08:04:47;;;;;;;5.10;4.60;;;20.70;1.00;;;;;;5056111;28;20376;-88
2023/09/07 08:07:13;;;;;;;5.23;4.73;;;21.00;1.00;;;;;;5055622;28;20399;-88
2023/09/07 08:09:38;;;;;;;5.00;4.60;;;20.90;1.00;;;;;;5054694;28;20387;-86
2023/09/07 08:12:05;;;;;;;5.20;4.70;;;21.10;1.00;;;;;;5073324;28;20944;-86
2023/09/07 08:14:31;;;;;;;5.70;5.10;;;21.30;1.00;;;;;;5061156;28;20465;-87
2023/09/07 08:16:57;;;;;;;5.78;5.10;;;21.10;1.00;;;;;;5083137;28;20379;-88
2023/09/07 08:19:23;;;;;;;7.63;4.97;;;20.90;1.00;;;;;;5069075;28;20387;-88
2023/09/07 08:21:49;;;;;;;5.37;4.87;;;21.30;1.00;;;;;;5076224;28;20400;-87
2023/09/07 08:24:14;;;;;;;5.60;5.10;;;21.20;1.00;;;;;;5076398;28;20382;-87
2023/09/07 08:26:40;;;;;;;7.37;5.50;;;21.50;1.00;;;;;;5065594;28;20395;-87
2023/09/07 08:29:06;;;;;;;6.35;5.70;;;21.70;1.00;;;;;;5055029;28;20924;-87
2023/09/07 08:31:33;;;;;;;7.03;4.90;;;21.60;1.00;;;;;;5072428;28;20467;-87
2023/09/07 08:34:04;;;;;;;5.35;4.85;;;21.50;1.00;;;;;;5079086;28;20423;-89
2023/09/07 08:36:33;;;;;;;6.88;5.43;;;21.60;1.00;;;;;;5097211;28;20399;-87
2023/09/07 08:39:05;;;;;;;6.10;5.32;;;20.20;1.00;;;;;;5080302;28;20379;-87
2023/09/07 08:41:32;;;;;;;6.15;5.40;;;21.10;1.00;;;;;;5074453;28;20403;-86
2023/09/07 08:44:00;;;;;;;6.60;5.90;;;21.40;1.00;;;;;;5073652;28;20409;-87
2023/09/07 08:46:26;;;;;;;5.72;5.30;;;22.40;1.00;;;;;;5074236;28;20377;-87
2023/09/07 08:48:52;;;;;;;6.10;5.50;;;22.00;1.00;;;;;;5092545;28;20391;-87
2023/09/07 08:51:19;;;;;;;6.10;5.57;;;22.00;1.00;;;;;;5074017;28;20393;-87
2023/09/07 08:53:46;;;;;;;6.13;5.63;;;21.90;1.00;;;;;;5073594;28;20402;-87
2023/09/07 08:56:21;;;;;;;5.90;5.30;;;21.10;1.00;;;;;;5073733;28;20477;-88
2023/09/07 08:58:49;;;;;;;6.25;5.57;;;22.20;1.00;;;;;;5074728;28;20385;-87
2023/09/07 09:01:15;;;;;;;7.05;6.00;;;22.10;1.00;;;;;;5073839;28;20885;-87
2023/09/07 09:03:45;;;;;;;7.95;5.93;;;22.10;1.00;;;;;;5073532;28;20390;-87
2023/09/07 09:06:11;;;;;;;6.72;6.03;;;22.20;1.00;;;;;;5074229;28;20888;-88
2023/09/07 09:08:44;;;;;;;6.38;5.78;;;22.00;1.00;;;;;;5073951;28;20398;-88
2023/09/07 09:11:10;;;;;;;6.50;5.90;;;22.50;1.00;;;;;;5091575;28;20390;-86
2023/09/07 09:13:36;;;;;;;9.00;6.00;;;22.60;1.00;;;;;;5092158;28;20398;-86
2023/09/07 09:16:02;;;;;;;6.80;6.18;;;24.10;1.00;;;;;;5056327;28;20376;-88
2023/09/07 09:18:28;;;;;;;7.10;6.40;;;22.70;1.00;;;;;;5054420;28;20466;-87
2023/09/07 09:20:55;;;;;;;7.25;6.25;;;21.70;1.00;;;;;;5053966;28;20391;-87
2023/09/07 09:23:21;;;;;;;6.78;6.00;;;22.90;1.00;;;;;;5054649;28;20422;-87
2023/09/07 09:25:50;;;;;;;6.53;5.93;;;22.80;1.00;;;;;;5053874;28;20388;-88
2023/09/07 09:28:15;;;;;;;7.68;6.88;;;22.80;1.00;;;;;;5084036;28;20393;-88
2023/09/07 09:30:44;;;;;;;6.97;6.37;;;22.90;1.00;;;;;;5054016;28;20397;-87
2023/09/07 09:33:10;;;;;;;7.47;6.78;;;23.00;1.00;;;;;;5053991;28;20415;-87
2023/09/07 09:35:36;;;;;;;6.80;6.20;;;23.10;1.00;;;;;;5054345;28;20396;-87
2023/09/07 09:38:05;;;;;;;7.33;6.63;;;23.20;1.00;;;;;;5071917;28;20889;-88
2023/09/07 09:40:37;;;;;;;7.88;7.18;;;23.20;1.00;;;;;;5070826;28;20927;-88
2023/09/07 09:43:03;;;;;;;7.03;6.32;;;23.30;1.00;;;;;;5077954;28;20770;-87
2023/09/07 09:45:30;;;;;;;7.30;6.60;;;23.20;1.00;;;;;;5071569;28;20379;-87
2023/09/07 09:47:56;;;;;;;6.55;5.85;;;24.80;1.00;;;;;;5053572;28;20396;-88
2023/09/07 09:50:22;;;;;;;7.17;6.47;;;23.50;1.00;;;;;;5053771;28;20433;-87
2023/09/07 09:52:48;;;;;;;7.30;6.60;;;22.90;1.00;;;;;;5071682;28;20716;-88
2023/09/07 09:55:15;;;;;;;7.40;6.80;;;23.70;1.00;;;;;;5053648;28;20429;-87
2023/09/07 09:57:41;;;;;;;6.65;6.05;;;23.70;1.00;;;;;;5053384;28;20396;-89
2023/09/07 10:02:47;;;;;;;7.00;6.10;;;23.80;1.00;;;;;;5071697;28;20382;-88
2023/09/07 10:05:13;;;;;;;7.60;6.80;;;24.00;1.00;;;;;;5053316;28;20477;-88
2023/09/07 10:07:48;;;;;;;6.55;6.05;;;24.30;1.00;;;;;;5071430;28;20411;-88
2023/09/07 10:10:14;;;;;;;7.78;6.55;;;24.00;1.00;;;;;;5052991;28;20390;-87
2023/09/07 10:12:45;;;;;;;6.63;6.13;;;24.20;1.00;;;;;;5053589;28;20392;-88
2023/09/07 10:15:21;;;;;;;7.05;6.35;;;24.40;1.00;;;;;;5053342;28;20391;-87
2023/09/07 10:17:49;;;;;;;8.35;6.57;;;24.40;1.00;;;;;;5052871;28;20372;-88
2023/09/07 10:20:19;;;;;;;6.95;6.32;;;24.30;1.00;;;;;;5052777;28;20380;-87
2023/09/07 10:22:45;;;;;;;6.70;5.95;;;24.60;1.00;;;;;;5053133;28;20440;-88
2023/09/07 10:25:21;;;;;;;6.90;6.30;;;24.80;1.00;;;;;;5072779;28;20390;-88
2023/09/07 10:27:47;;;;;;;7.22;6.53;;;24.60;1.00;;;;;;5064514;28;20479;-87
2023/09/07 10:30:13;;;;;;;7.80;5.80;;;24.60;1.00;;;;;;5072777;28;20382;-87
2023/09/07 10:32:40;;;;;;;6.85;6.10;;;25.40;1.00;;;;;;5077569;28;20434;-87
2023/09/07 10:35:18;;;;;;;6.40;5.90;;;24.80;1.00;;;;;;5077192;28;20893;-88
2023/09/07 10:37:46;;;;;;;8.25;6.30;;;24.80;1.00;;;;;;5042406;22;20820;-82
2023/09/07 10:40:14;;;;;;;6.93;5.93;;;24.90;1.00;;;;;;5015968;28;20387;-80
2023/09/07 10:42:40;;;;;;;6.53;5.93;;;25.00;1.00;;;;;;5017446;28;20424;-81
2023/09/07 10:45:10;;;;;;;7.93;6.32;;;25.20;1.00;;;;;;5014176;28;20435;-81
2023/09/07 10:47:40;;;;;;;6.30;5.70;;;25.20;1.00;;;;;;5012114;28;20376;-82
2023/09/07 10:50:06;;;;;;;7.30;6.60;;;25.20;1.00;;;;;;5012627;28;20408;-81
2023/09/07 10:52:33;;;;;;;7.00;6.15;;;25.40;1.00;;;;;;5004514;28;20409;-81
2023/09/07 10:54:59;;;;;;;6.30;5.70;;;25.50;1.00;;;;;;5016983;28;20404;-81
2023/09/07 10:57:24;;;;;;;6.10;5.50;;;25.50;1.00;;;;;;5015910;28;20456;-80
2023/09/07 10:59:50;;;;;;;6.10;5.60;;;25.60;1.00;;;;;;4998366;28;20385;-81
2023/09/07 11:02:15;;;;;;;6.82;6.13;;;25.70;1.00;;;;;;5029589;28;20481;-81
2023/09/07 11:04:41;;;;;;;7.83;5.73;;;25.70;1.00;;;;;;5035725;28;20398;-81
2023/09/07 11:07:07;;;;;;;6.10;5.50;;;25.90;1.00;;;;;;5008201;28;20813;-82
2023/09/07 11:09:32;;;;;;;5.90;5.10;;;26.10;1.00;;;;;;5017074;28;20381;-81
2023/09/07 11:12:05;;;;;;;6.30;5.40;;;26.10;1.00;;;;;;5028523;28;20385;-80
2023/09/07 11:14:30;;;;;;;5.60;5.10;;;26.00;1.00;;;;;;5016294;28;20408;-82
2023/09/07 11:16:56;;;;;;;6.07;5.47;;;26.20;1.00;;;;;;5015838;28;20904;-81
2023/09/07 11:19:22;;;;;;;6.15;5.65;;;26.40;1.00;;;;;;5033592;28;20447;-82
2023/09/07 11:21:48;;;;;;;5.93;5.43;;;26.60;1.00;;;;;;5017479;28;20450;-81
2023/09/07 11:24:13;;;;;;;6.13;5.53;;;26.60;1.00;;;;;;5035518;28;20409;-81
2023/09/07 11:26:46;;;;;;;6.30;5.70;;;27.00;1.00;;;;;;5035621;28;20383;-81
2023/09/07 11:29:18;;;;;;;5.95;5.35;;;27.30;1.00;;;;;;5035408;28;20399;-81
2023/09/07 11:31:45;;;;;;;5.70;5.18;;;27.70;1.00;;;;;;5019007;28;20403;-83
2023/09/07 11:34:12;;;;;;;5.47;4.97;;;28.50;1.00;;;;;;5036810;28;20395;-83
2023/09/07 11:36:39;;;;;;;5.28;4.88;;;28.80;1.00;;;;;;5010552;28;20461;-82
2023/09/07 11:39:13;;;;;;;5.68;5.10;;;29.30;1.00;;;;;;5015918;28;20396;-83
2023/09/07 11:41:44;;;;;;;6.05;5.05;;;29.40;1.00;;;;;;4998871;28;20900;-82
2023/09/07 11:44:10;;;;;;;5.50;4.70;;;29.50;1.00;;;;;;4998536;28;20464;-82
2023/09/07 11:46:36;;;;;;;4.70;4.30;;;29.40;1.00;;;;;;4998746;28;20472;-83
2023/09/07 11:49:02;;;;;;;6.83;4.90;;;29.50;1.00;;;;;;4997514;28;20397;-82
2023/09/07 11:51:27;;;;;;;4.80;4.50;;;30.10;1.00;;;;;;4997652;28;20940;-83
2023/09/07 11:53:53;;;;;;;5.55;5.05;;;29.50;1.00;;;;;;5015472;28;20409;-82
2023/09/07 11:56:18;;;;;;;5.00;4.60;;;29.90;1.00;;;;;;4998211;28;20388;-82
2023/09/07 11:58:49;;;;;;;4.93;4.37;;;30.00;1.00;;;;;;5015637;28;20393;-81
2023/09/07 12:01:16;;;;;;;4.75;4.30;;;29.30;1.00;;;;;;5015555;28;20468;-82
2023/09/07 12:03:42;;;;;;;5.28;4.78;;;29.50;1.00;;;;;;5021709;28;20400;-83
2023/09/07 12:06:09;;;;;;;5.90;5.00;;;28.60;1.00;;;;;;5013163;28;20389;-82
2023/09/07 12:08:34;;;;;;;5.55;4.95;;;29.00;1.00;;;;;;5014086;28;20464;-83
2023/09/07 12:11:00;;;;;;;5.50;5.10;;;29.60;1.00;;;;;;5005847;28;20401;-83
2023/09/07 12:13:26;;;;;;;4.70;4.30;;;29.40;1.00;;;;;;4998312;28;20518;-84
2023/09/07 12:15:51;;;;;;;5.53;5.03;;;29.70;1.00;;;;;;4998917;28;20496;-81
2023/09/07 12:18:17;;;;;;;5.00;4.50;;;30.00;1.00;;;;;;4998280;28;20435;-83
2023/09/07 12:20:44;;;;;;;4.50;4.10;;;30.10;1.00;;;;;;5014113;28;20392;-83
2023/09/07 12:23:10;;;;;;;4.75;4.35;;;29.50;1.00;;;;;;4997456;28;20392;-84
2023/09/07 12:25:36;;;;;;;5.37;4.90;;;29.50;1.00;;;;;;4997848;28;20456;-84
2023/09/07 12:28:02;;;;;;;5.70;5.20;;;29.60;1.00;;;;;;4997016;28;20492;-83
2023/09/07 12:30:28;;;;;;;5.60;5.10;;;29.60;1.00;;;;;;5014231;28;20400;-83
2023/09/07 12:32:53;;;;;;;5.83;4.73;;;28.90;1.00;;;;;;5034722;28;20395;-81
2023/09/07 12:35:20;;;;;;;5.40;4.90;;;29.40;1.00;;;;;;5036573;28;20383;-81
2023/09/07 12:37:46;;;;;;;5.00;4.60;;;29.30;1.00;;;;;;5016791;28;20949;-82
2023/09/07 12:40:12;;;;;;;5.22;4.72;;;29.00;1.00;;;;;;5014288;28;20524;-83
2023/09/07 12:42:47;;;;;;;5.10;4.70;;;28.90;1.00;;;;;;5010510;28;20905;-82
2023/09/07 12:45:14;;;;;;;5.70;5.05;;;29.20;1.00;;;;;;4996258;28;20397;-83
2023/09/07 12:47:40;;;;;;;5.20;4.70;;;29.30;1.00;;;;;;4994479;28;20400;-82
2023/09/07 12:50:09;;;;;;;5.20;4.80;;;28.80;1.00;;;;;;5014923;28;20780;-83
2023/09/07 12:52:37;;;;;;;5.05;4.55;;;29.30;1.00;;;;;;5015365;28;20390;-83
2023/09/07 12:55:03;;;;;;;5.00;4.60;;;29.30;1.00;;;;;;5014908;28;20413;-82
2023/09/07 12:57:29;;;;;;;6.30;4.70;;;29.30;1.00;;;;;;5014180;28;20547;-82